sensor_id;sensor_type;location;lat;lon;timestamp;pressure;altitude;pressure_sealevel;temperature;humidity
13604;BME280;24578;48.264;11.436;2023-01-25T00:02:55;97601.03;;;0.58;100.00
13604;BME280;24578;48.264;11.436;2023-01-25T00:06:00;97596.72;;;0.62;100.00
13604;BME280;24578;48.264;11.436;2023-01-25T00:09:01;97592.59;;;0.50;100.00
13604;BME280;24578;48.264;11.436;2023-01-25T00:12:02;97594.28;;;0.51;100.00
13604;BME280;24578;48.264;11.436;2023-01-25T00:15:03;97605.25;;;0.59;100.00
13604;BME280;24578;48.264;11.436;2023-01-25T00:18:03;97598.56;;;0.47;100.00
13604;BME280;24578;48.264;11.436;2023-01-25T00:21:17;97595.22;;;0.42;100.00
13604;BME280;24578;48.264;11.436;2023-01-25T00:24:18;97610.53;;;0.40;100.00
13604;BME280;24578;48.264;11.436;2023-01-25T00:27:22;97602.91;;;0.37;100.00
13604;BME280;24578;48.264;11.436;2023-01-25T00:30:22;97596.91;;;0.43;100.00
13604;BME280;24578;48.264;11.436;2023-01-25T00:33:54;97598.75;;;0.28;100.00
13604;BME280;24578;48.264;11.436;2023-01-25T00:40:31;97589.34;;;0.35;100.00
13604;BME280;24578;48.264;11.436;2023-01-25T00:43:31;97597.00;;;0.34;100.00
13604;BME280;24578;48.264;11.436;2023-01-25T00:46:32;97597.84;;;0.36;100.00
13604;BME280;24578;48.264;11.436;2023-01-25T00:49:32;97595.22;;;0.43;100.00
13604;BME280;24578;48.264;11.436;2023-01-25T00:52:33;97594.47;;;0.34;100.00
13604;BME280;24578;48.264;11.436;2023-01-25T00:55:33;97592.00;;;0.24;100.00
13604;BME280;24578;48.264;11.436;2023-01-25T00:58:34;97593.63;;;0.32;100.00
13604;BME280;24578;48.264;11.436;2023-01-25T01:01:35;97588.50;;;0.38;100.00
13604;BME280;24578;48.264;11.436;2023-01-25T01:04:35;97585.16;;;0.31;100.00
13604;BME280;24578;48.264;11.436;2023-01-25T01:07:36;97597.00;;;0.32;100.00
13604;BME280;24578;48.264;11.436;2023-01-25T01:10:37;97590.28;;;0.28;100.00
13604;BME280;24578;48.264;11.436;2023-01-25T01:13:39;97583.44;;;0.32;100.00
13604;BME280;24578;48.264;11.436;2023-01-25T01:16:40;97586.91;;;0.23;100.00
13604;BME280;24578;48.264;11.436;2023-01-25T01:19:40;97578.44;;;0.22;100.00
13604;BME280;24578;48.264;11.436;2023-01-25T01:22:41;97578.47;;;0.19;100.00
13604;BME280;24578;48.264;11.436;2023-01-25T01:25:41;97578.53;;;0.14;100.00
13604;BME280;24578;48.264;11.436;2023-01-25T01:28:42;97573.38;;;0.19;100.00
13604;BME280;24578;48.264;11.436;2023-01-25T01:31:42;97561.53;;;0.15;100.00
13604;BME280;24578;48.264;11.436;2023-01-25T01:34:43;97579.34;;;0.15;100.00
13604;BME280;24578;48.264;11.436;2023-01-25T01:37:43;97570.88;;;0.13;100.00
13604;BME280;24578;48.264;11.436;2023-01-25T01:40:45;97570.13;;;0.05;100.00
13604;BME280;24578;48.264;11.436;2023-01-25T01:43:46;97574.31;;;0.10;100.00
13604;BME280;24578;48.264;11.436;2023-01-25T01:46:56;97567.53;;;0.09;100.00
13604;BME280;24578;48.264;11.436;2023-01-25T01:50:07;97568.41;;;0.07;100.00
13604;BME280;24578;48.264;11.436;2023-01-25T01:53:16;97577.69;;;0.12;100.00
13604;BME280;24578;48.264;11.436;2023-01-25T01:56:25;97579.31;;;0.17;100.00
13604;BME280;24578;48.264;11.436;2023-01-25T01:59:56;97572.41;;;0.33;100.00
13604;BME280;24578;48.264;11.436;2023-01-25T02:03:00;97573.38;;;0.19;100.00
13604;BME280;24578;48.264;11.436;2023-01-25T02:06:19;97568.31;;;0.13;100.00
13604;BME280;24578;48.264;11.436;2023-01-25T02:09:25;97572.56;;;0.14;100.00
13604;BME280;24578;48.264;11.436;2023-01-25T02:12:29;97575.97;;;0.13;100.00
13604;BME280;24578;48.264;11.436;2023-01-25T02:15:38;97572.56;;;0.16;100.00
13604;BME280;24578;48.264;11.436;2023-01-25T02:18:40;97576.81;;;0.15;100.00
13604;BME280;24578;48.264;11.436;2023-01-25T02:21:44;97569.13;;;0.17;100.00
13604;BME280;24578;48.264;11.436;2023-01-25T02:25:25;97564.94;;;0.16;100.00
13604;BME280;24578;48.264;11.436;2023-01-25T02:28:27;97568.34;;;0.11;100.00
13604;BME280;24578;48.264;11.436;2023-01-25T02:31:29;97563.44;;;-0.09;100.00
13604;BME280;24578;48.264;11.436;2023-01-25T02:34:30;97561.69;;;-0.04;100.00
13604;BME280;24578;48.264;11.436;2023-01-25T02:37:30;97560.78;;;0.02;100.00
13604;BME280;24578;48.264;11.436;2023-01-25T02:40:37;97566.72;;;0.06;100.00
13604;BME280;24578;48.264;11.436;2023-01-25T02:43:40;97560.81;;;0.01;100.00
13604;BME280;24578;48.264;11.436;2023-01-25T02:46:42;97565.00;;;0.03;100.00
13604;BME280;24578;48.264;11.436;2023-01-25T02:49:44;97558.28;;;-0.03;100.00
13604;BME280;24578;48.264;11.436;2023-01-25T02:52:44;97561.66;;;-0.01;100.00
13604;BME280;24578;48.264;11.436;2023-01-25T02:55:45;97563.34;;;0.01;100.00
13604;BME280;24578;48.264;11.436;2023-01-25T02:58:45;97559.97;;;-0.02;100.00
13604;BME280;24578;48.264;11.436;2023-01-25T03:01:46;97562.53;;;-0.03;100.00
13604;BME280;24578;48.264;11.436;2023-01-25T03:04:47;97554.91;;;-0.05;100.00
13604;BME280;24578;48.264;11.436;2023-01-25T03:07:47;97555.75;;;-0.04;100.00
13604;BME280;24578;48.264;11.436;2023-01-25T03:10:48;97554.06;;;-0.05;100.00
13604;BME280;24578;48.264;11.436;2023-01-25T03:13:48;97551.53;;;-0.08;100.00
13604;BME280;24578;48.264;11.436;2023-01-25T03:16:49;97548.97;;;-0.02;100.00
13604;BME280;24578;48.264;11.436;2023-01-25T03:19:49;97539.59;;;-0.02;100.00
13604;BME280;24578;48.264;11.436;2023-01-25T03:22:50;97548.06;;;0.01;100.00
13604;BME280;24578;48.264;11.436;2023-01-25T03:25:51;97537.06;;;-0.02;100.00
13604;BME280;24578;48.264;11.436;2023-01-25T03:28:51;97533.66;;;-0.01;100.00
13604;BME280;24578;48.264;11.436;2023-01-25T03:31:52;97538.78;;;-0.07;100.00
13604;BME280;24578;48.264;11.436;2023-01-25T03:34:52;97534.63;;;-0.14;100.00
13604;BME280;24578;48.264;11.436;2023-01-25T03:37:53;97532.09;;;-0.17;100.00
13604;BME280;24578;48.264;11.436;2023-01-25T03:40:53;97535.44;;;-0.10;100.00
13604;BME280;24578;48.264;11.436;2023-01-25T03:43:54;97535.47;;;-0.13;100.00
13604;BME280;24578;48.264;11.436;2023-01-25T03:46:54;97536.28;;;-0.10;100.00
13604;BME280;24578;48.264;11.436;2023-01-25T03:49:55;97516.81;;;-0.17;100.00
13604;BME280;24578;48.264;11.436;2023-01-25T03:52:55;97519.34;;;-0.16;100.00
13604;BME280;24578;48.264;11.436;2023-01-25T03:56:05;97527.84;;;-0.15;100.00
13604;BME280;24578;48.264;11.436;2023-01-25T03:59:10;97528.59;;;-0.04;100.00
13604;BME280;24578;48.264;11.436;2023-01-25T04:02:11;97526.09;;;-0.08;100.00
13604;BME280;24578;48.264;11.436;2023-01-25T04:05:13;97520.09;;;-0.01;100.00
13604;BME280;24578;48.264;11.436;2023-01-25T04:08:14;97528.66;;;-0.10;100.00
13604;BME280;24578;48.264;11.436;2023-01-25T04:11:15;97521.00;;;-0.08;100.00
13604;BME280;24578;48.264;11.436;2023-01-25T04:14:15;97519.34;;;-0.16;100.00
13604;BME280;24578;48.264;11.436;2023-01-25T04:17:16;97520.22;;;-0.15;100.00
13604;BME280;24578;48.264;11.436;2023-01-25T04:20:17;97523.63;;;-0.19;100.00
13604;BME280;24578;48.264;11.436;2023-01-25T04:23:17;97521.91;;;-0.14;100.00
13604;BME280;24578;48.264;11.436;2023-01-25T04:26:18;97522.00;;;-0.26;100.00
13604;BME280;24578;48.264;11.436;2023-01-25T04:29:18;97517.75;;;-0.26;100.00
13604;BME280;24578;48.264;11.436;2023-01-25T04:32:19;97515.06;;;-0.09;100.00
13604;BME280;24578;48.264;11.436;2023-01-25T04:35:19;97517.72;;;-0.23;100.00
13604;BME280;24578;48.264;11.436;2023-01-25T04:38:20;97507.63;;;-0.31;100.00
13604;BME280;24578;48.264;11.436;2023-01-25T04:41:21;97504.16;;;-0.23;100.00
13604;BME280;24578;48.264;11.436;2023-01-25T04:44:26;97496.50;;;-0.19;100.00
13604;BME280;24578;48.264;11.436;2023-01-25T04:47:26;97499.00;;;-0.17;100.00
13604;BME280;24578;48.264;11.436;2023-01-25T04:50:27;97497.41;;;-0.24;100.00
13604;BME280;24578;48.264;11.436;2023-01-25T04:53:27;97494.00;;;-0.25;100.00
13604;BME280;24578;48.264;11.436;2023-01-25T04:56:28;97490.63;;;-0.25;100.00
13604;BME280;24578;48.264;11.436;2023-01-25T04:59:28;97492.25;;;-0.21;100.00
13604;BME280;24578;48.264;11.436;2023-01-25T05:02:29;97483.84;;;-0.28;100.00
13604;BME280;24578;48.264;11.436;2023-01-25T05:05:29;97491.50;;;-0.31;100.00
13604;BME280;24578;48.264;11.436;2023-01-25T05:08:30;97484.69;;;-0.27;100.00
13604;BME280;24578;48.264;11.436;2023-01-25T05:11:31;97498.28;;;-0.28;100.00
13604;BME280;24578;48.264;11.436;2023-01-25T05:14:31;97490.72;;;-0.36;100.00
13604;BME280;24578;48.264;11.436;2023-01-25T05:17:32;97473.78;;;-0.40;100.00
13604;BME280;24578;48.264;11.436;2023-01-25T05:20:32;97476.16;;;-0.23;100.00
13604;BME280;24578;48.264;11.436;2023-01-25T05:23:33;97465.16;;;-0.24;100.00
13604;BME280;24578;48.264;11.436;2023-01-25T05:26:33;97468.50;;;-0.20;100.00
13604;BME280;24578;48.264;11.436;2023-01-25T05:29:53;97471.91;;;-0.21;100.00
13604;BME280;24578;48.264;11.436;2023-01-25T05:32:54;97471.13;;;-0.29;100.00
13604;BME280;24578;48.264;11.436;2023-01-25T05:35:55;97471.94;;;-0.24;100.00
13604;BME280;24578;48.264;11.436;2023-01-25T05:38:55;97476.28;;;-0.39;100.00
13604;BME280;24578;48.264;11.436;2023-01-25T05:41:56;97478.78;;;-0.29;100.00
13604;BME280;24578;48.264;11.436;2023-01-25T05:44:57;97473.72;;;-0.36;100.00
13604;BME280;24578;48.264;11.436;2023-01-25T05:47:58;97477.22;;;-0.46;100.00
13604;BME280;24578;48.264;11.436;2023-01-25T05:50:58;97487.31;;;-0.38;100.00
13604;BME280;24578;48.264;11.436;2023-01-25T05:53:59;97477.25;;;-0.48;100.00
13604;BME280;24578;48.264;11.436;2023-01-25T05:56:59;97478.00;;;-0.39;100.00
13604;BME280;24578;48.264;11.436;2023-01-25T06:00:00;97471.31;;;-0.54;100.00
13604;BME280;24578;48.264;11.436;2023-01-25T06:03:01;97465.38;;;-0.53;100.00
13604;BME280;24578;48.264;11.436;2023-01-25T06:06:02;97471.25;;;-0.43;100.00
13604;BME280;24578;48.264;11.436;2023-01-25T06:09:02;97472.09;;;-0.40;100.00
13604;BME280;24578;48.264;11.436;2023-01-25T06:12:03;97464.50;;;-0.46;100.00
13604;BME280;24578;48.264;11.436;2023-01-25T06:15:06;97462.72;;;-0.39;100.00
13604;BME280;24578;48.264;11.436;2023-01-25T06:18:06;97464.41;;;-0.37;100.00
13604;BME280;24578;48.264;11.436;2023-01-25T06:21:07;97456.81;;;-0.40;100.00
13604;BME280;24578;48.264;11.436;2023-01-25T06:24:07;97454.22;;;-0.32;100.00
13604;BME280;24578;48.264;11.436;2023-01-25T06:27:08;97452.53;;;-0.38;100.00
13604;BME280;24578;48.264;11.436;2023-01-25T06:30:10;97442.53;;;-0.55;100.00
13604;BME280;24578;48.264;11.436;2023-01-25T06:33:10;97441.56;;;-0.44;100.00
13604;BME280;24578;48.264;11.436;2023-01-25T06:36:14;97437.97;;;-0.23;100.00
13604;BME280;24578;48.264;11.436;2023-01-25T06:39:14;97436.41;;;-0.35;100.00
13604;BME280;24578;48.264;11.436;2023-01-25T06:42:15;97440.66;;;-0.37;100.00
13604;BME280;24578;48.264;11.436;2023-01-25T06:45:16;97441.56;;;-0.41;100.00
13604;BME280;24578;48.264;11.436;2023-01-25T06:48:17;97433.88;;;-0.35;100.00
13604;BME280;24578;48.264;11.436;2023-01-25T06:51:17;97443.94;;;-0.24;100.00
13604;BME280;24578;48.264;11.436;2023-01-25T06:54:18;97435.50;;;-0.29;100.00
13604;BME280;24578;48.264;11.436;2023-01-25T06:57:19;97427.00;;;-0.30;100.00
13604;BME280;24578;48.264;11.436;2023-01-25T07:00:19;97419.28;;;-0.19;100.00
13604;BME280;24578;48.264;11.436;2023-01-25T07:03:20;97428.69;;;-0.29;100.00
13604;BME280;24578;48.264;11.436;2023-01-25T07:06:21;97414.34;;;-0.33;100.00
13604;BME280;24578;48.264;11.436;2023-01-25T07:09:22;97420.25;;;-0.31;100.00
13604;BME280;24578;48.264;11.436;2023-01-25T07:12:23;97423.59;;;-0.26;100.00
13604;BME280;24578;48.264;11.436;2023-01-25T07:15:25;97415.16;;;-0.31;100.00
13604;BME280;24578;48.264;11.436;2023-01-25T07:18:27;97420.09;;;-0.17;100.00
13604;BME280;24578;48.264;11.436;2023-01-25T07:21:29;97402.47;;;-0.34;100.00
13604;BME280;24578;48.264;11.436;2023-01-25T07:24:29;97417.75;;;-0.34;100.00
13604;BME280;24578;48.264;11.436;2023-01-25T07:27:32;97424.53;;;-0.38;100.00
13604;BME280;24578;48.264;11.436;2023-01-25T07:30:34;97416.91;;;-0.36;100.00
13604;BME280;24578;48.264;11.436;2023-01-25T07:33:35;97408.44;;;-0.38;100.00
13604;BME280;24578;48.264;11.436;2023-01-25T07:36:36;97411.94;;;-0.49;100.00
13604;BME280;24578;48.264;11.436;2023-01-25T07:39:37;97413.66;;;-0.51;100.00
13604;BME280;24578;48.264;11.436;2023-01-25T07:42:37;97420.44;;;-0.50;100.00
13604;BME280;24578;48.264;11.436;2023-01-25T07:45:38;97422.06;;;-0.42;100.00
13604;BME280;24578;48.264;11.436;2023-01-25T07:48:40;97415.34;;;-0.50;100.00
13604;BME280;24578;48.264;11.436;2023-01-25T07:51:44;97423.81;;;-0.48;100.00
13604;BME280;24578;48.264;11.436;2023-01-25T07:54:44;97432.19;;;-0.39;100.00
13604;BME280;24578;48.264;11.436;2023-01-25T07:57:46;97433.91;;;-0.40;100.00
13604;BME280;24578;48.264;11.436;2023-01-25T08:00:47;97435.69;;;-0.48;100.00
13604;BME280;24578;48.264;11.436;2023-01-25T08:03:48;97433.94;;;-0.44;100.00
13604;BME280;24578;48.264;11.436;2023-01-25T08:06:49;97431.41;;;-0.43;100.00
13604;BME280;24578;48.264;11.436;2023-01-25T08:09:50;97423.75;;;-0.41;100.00
13604;BME280;24578;48.264;11.436;2023-01-25T08:12:50;97425.34;;;-0.33;100.00
13604;BME280;24578;48.264;11.436;2023-01-25T08:15:54;97421.06;;;-0.27;100.00
13604;BME280;24578;48.264;11.436;2023-01-25T08:18:58;97433.78;;;-0.27;100.00
13604;BME280;24578;48.264;11.436;2023-01-25T08:21:58;97424.50;;;-0.32;100.00
13604;BME280;24578;48.264;11.436;2023-01-25T08:24:59;97418.59;;;-0.37;100.00
13604;BME280;24578;48.264;11.436;2023-01-25T08:28:00;97425.47;;;-0.42;100.00
13604;BME280;24578;48.264;11.436;2023-01-25T08:31:15;97421.94;;;-0.32;100.00
13604;BME280;24578;48.264;11.436;2023-01-25T08:34:18;97417.81;;;-0.42;100.00
13604;BME280;24578;48.264;11.436;2023-01-25T08:37:18;97415.19;;;-0.33;100.00
13604;BME280;24578;48.264;11.436;2023-01-25T08:40:19;97416.88;;;-0.35;100.00
13604;BME280;24578;48.264;11.436;2023-01-25T08:43:20;97404.28;;;-0.44;100.00
13604;BME280;24578;48.264;11.436;2023-01-25T08:46:21;97399.94;;;-0.36;100.00
13604;BME280;24578;48.264;11.436;2023-01-25T08:49:22;97411.66;;;-0.21;100.00
13604;BME280;24578;48.264;11.436;2023-01-25T08:52:23;97407.44;;;-0.23;100.00
13604;BME280;24578;48.264;11.436;2023-01-25T08:55:23;97406.72;;;-0.33;100.00
13604;BME280;24578;48.264;11.436;2023-01-25T08:58:24;97404.09;;;-0.25;100.00
13604;BME280;24578;48.264;11.436;2023-01-25T09:01:24;97399.78;;;-0.20;100.00
13604;BME280;24578;48.264;11.436;2023-01-25T09:04:25;97398.88;;;-0.16;100.00
13604;BME280;24578;48.264;11.436;2023-01-25T09:07:27;97398.06;;;-0.17;100.00
13604;BME280;24578;48.264;11.436;2023-01-25T09:10:31;97389.53;;;-0.16;100.00
13604;BME280;24578;48.264;11.436;2023-01-25T09:13:32;97384.31;;;-0.02;100.00
13604;BME280;24578;48.264;11.436;2023-01-25T09:16:32;97392.81;;;-0.06;100.00
13604;BME280;24578;48.264;11.436;2023-01-25T09:19:33;97393.78;;;-0.13;100.00
13604;BME280;24578;48.264;11.436;2023-01-25T09:22:34;97390.44;;;-0.18;100.00
13604;BME280;24578;48.264;11.436;2023-01-25T09:25:35;97389.59;;;-0.19;100.00
13604;BME280;24578;48.264;11.436;2023-01-25T09:28:36;97381.09;;;-0.18;100.00
13604;BME280;24578;48.264;11.436;2023-01-25T09:31:38;97384.34;;;-0.06;100.00
13604;BME280;24578;48.264;11.436;2023-01-25T09:34:39;97391.16;;;-0.08;100.00
13604;BME280;24578;48.264;11.436;2023-01-25T09:37:40;97380.19;;;-0.13;100.00
13604;BME280;24578;48.264;11.436;2023-01-25T09:40:45;97378.63;;;-0.25;100.00
13604;BME280;24578;48.264;11.436;2023-01-25T09:47:32;97377.72;;;-0.20;100.00
13604;BME280;24578;48.264;11.436;2023-01-25T09:53:53;97372.72;;;-0.27;100.00
13604;BME280;24578;48.264;11.436;2023-01-25T09:56:57;97379.38;;;-0.17;100.00
13604;BME280;24578;48.264;11.436;2023-01-25T10:00:05;97372.59;;;-0.15;100.00
13604;BME280;24578;48.264;11.436;2023-01-25T10:03:37;97368.16;;;-0.01;100.00
13604;BME280;24578;48.264;11.436;2023-01-25T10:06:43;97363.94;;;0.00;100.00
13604;BME280;24578;48.264;11.436;2023-01-25T10:09:50;97362.19;;;0.04;100.00
13604;BME280;24578;48.264;11.436;2023-01-25T10:12:54;97373.38;;;-0.11;100.00
13604;BME280;24578;48.264;11.436;2023-01-25T10:16:02;97363.25;;;-0.16;100.00
13604;BME280;24578;48.264;11.436;2023-01-25T10:22:23;97359.06;;;-0.20;100.00
13604;BME280;24578;48.264;11.436;2023-01-25T10:25:34;97350.53;;;-0.16;100.00
13604;BME280;24578;48.264;11.436;2023-01-25T10:29:11;97351.31;;;-0.11;100.00
13604;BME280;24578;48.264;11.436;2023-01-25T10:32:18;97335.22;;;-0.13;100.00
13604;BME280;24578;48.264;11.436;2023-01-25T10:35:23;97329.28;;;-0.13;100.00
13604;BME280;24578;48.264;11.436;2023-01-25T10:41:38;97332.66;;;-0.10;100.00
13604;BME280;24578;48.264;11.436;2023-01-25T10:44:41;97322.56;;;-0.19;100.00
13604;BME280;24578;48.264;11.436;2023-01-25T10:47:46;97326.69;;;-0.09;100.00
13604;BME280;24578;48.264;11.436;2023-01-25T10:50:51;97320.72;;;-0.08;100.00
13604;BME280;24578;48.264;11.436;2023-01-25T10:54:00;97313.91;;;-0.06;100.00
13604;BME280;24578;48.264;11.436;2023-01-25T10:57:01;97313.91;;;-0.04;100.00
13604;BME280;24578;48.264;11.436;2023-01-25T11:00:06;97319.00;;;-0.04;100.00
13604;BME280;24578;48.264;11.436;2023-01-25T11:03:20;97312.19;;;-0.04;100.00
13604;BME280;24578;48.264;11.436;2023-01-25T11:06:36;97302.03;;;-0.07;100.00
13604;BME280;24578;48.264;11.436;2023-01-25T11:09:38;97302.28;;;-0.25;100.00
13604;BME280;24578;48.264;11.436;2023-01-25T11:12:39;97292.06;;;-0.22;100.00
13604;BME280;24578;48.264;11.436;2023-01-25T11:15:41;97282.69;;;-0.20;100.00
13604;BME280;24578;48.264;11.436;2023-01-25T11:18:53;97282.63;;;-0.14;100.00
13604;BME280;24578;48.264;11.436;2023-01-25T11:21:56;97285.97;;;-0.09;100.00
13604;BME280;24578;48.264;11.436;2023-01-25T11:24:57;97280.94;;;-0.15;100.00
13604;BME280;24578;48.264;11.436;2023-01-25T11:28:18;97272.50;;;-0.17;100.00
13604;BME280;24578;48.264;11.436;2023-01-25T11:31:21;97275.72;;;-0.06;100.00
13604;BME280;24578;48.264;11.436;2023-01-25T11:34:27;97262.25;;;-0.11;100.00
13604;BME280;24578;48.264;11.436;2023-01-25T11:37:58;97243.59;;;-0.14;100.00
13604;BME280;24578;48.264;11.436;2023-01-25T11:41:23;97240.06;;;-0.03;100.00
13604;BME280;24578;48.264;11.436;2023-01-25T11:50:50;97223.84;;;0.05;100.00
13604;BME280;24578;48.264;11.436;2023-01-25T12:11:12;97196.25;;;-0.25;100.00
13604;BME280;24578;48.264;11.436;2023-01-25T12:18:55;97178.47;;;-0.26;100.00
13604;BME280;24578;48.264;11.436;2023-01-25T12:28:21;97164.06;;;-0.27;100.00
13604;BME280;24578;48.264;11.436;2023-01-25T12:31:40;97159.78;;;-0.25;100.00
13604;BME280;24578;48.264;11.436;2023-01-25T12:34:50;97163.94;;;-0.20;100.00
13604;BME280;24578;48.264;11.436;2023-01-25T12:38:43;97148.56;;;-0.13;100.00
13604;BME280;24578;48.264;11.436;2023-01-25T12:41:32;97147.94;;;-0.26;100.00
13604;BME280;24578;48.264;11.436;2023-01-25T12:48:19;97143.78;;;-0.32;100.00
13604;BME280;24578;48.264;11.436;2023-01-25T12:51:20;97137.91;;;-0.39;100.00
13604;BME280;24578;48.264;11.436;2023-01-25T12:54:37;97129.25;;;-0.25;100.00
13604;BME280;24578;48.264;11.436;2023-01-25T12:57:52;97131.56;;;-0.11;100.00
13604;BME280;24578;48.264;11.436;2023-01-25T13:01:21;97127.19;;;-0.02;100.00
13604;BME280;24578;48.264;11.436;2023-01-25T13:04:58;97121.44;;;-0.13;100.00
13604;BME280;24578;48.264;11.436;2023-01-25T13:17:22;97111.22;;;-0.11;100.00
13604;BME280;24578;48.264;11.436;2023-01-25T13:21:00;97108.94;;;-0.28;100.00
13604;BME280;24578;48.264;11.436;2023-01-25T13:24:26;97100.56;;;-0.35;100.00
13604;BME280;24578;48.264;11.436;2023-01-25T13:27:29;97107.31;;;-0.36;100.00
13604;BME280;24578;48.264;11.436;2023-01-25T13:30:32;97097.03;;;-0.26;100.00
13604;BME280;24578;48.264;11.436;2023-01-25T13:33:34;97098.47;;;-0.10;100.00
13604;BME280;24578;48.264;11.436;2023-01-25T13:39:46;97086.91;;;-0.29;100.00
13604;BME280;24578;48.264;11.436;2023-01-25T13:43:02;97080.34;;;-0.46;100.00
13604;BME280;24578;48.264;11.436;2023-01-25T13:46:06;97079.38;;;-0.37;100.00
13604;BME280;24578;48.264;11.436;2023-01-25T13:49:20;97080.16;;;-0.32;100.00
13604;BME280;24578;48.264;11.436;2023-01-25T13:52:24;97090.38;;;-0.37;100.00
13604;BME280;24578;48.264;11.436;2023-01-25T13:55:26;97084.44;;;-0.36;100.00
13604;BME280;24578;48.264;11.436;2023-01-25T13:58:30;97076.88;;;-0.40;100.00
13604;BME280;24578;48.264;11.436;2023-01-25T14:01:34;97085.47;;;-0.49;100.00
13604;BME280;24578;48.264;11.436;2023-01-25T14:04:35;97077.81;;;-0.46;100.00
13604;BME280;24578;48.264;11.436;2023-01-25T14:07:36;97073.44;;;-0.38;100.00
13604;BME280;24578;48.264;11.436;2023-01-25T14:10:36;97068.50;;;-0.47;100.00
13604;BME280;24578;48.264;11.436;2023-01-25T14:13:37;97064.22;;;-0.45;100.00
13604;BME280;24578;48.264;11.436;2023-01-25T14:17:16;97066.72;;;-0.42;100.00
13604;BME280;24578;48.264;11.436;2023-01-25T14:20:19;97069.41;;;-0.51;100.00
13604;BME280;24578;48.264;11.436;2023-01-25T14:23:28;97065.00;;;-0.40;100.00
13604;BME280;24578;48.264;11.436;2023-01-25T14:26:30;97062.56;;;-0.48;100.00
13604;BME280;24578;48.264;11.436;2023-01-25T14:29:33;97051.56;;;-0.48;100.00
13604;BME280;24578;48.264;11.436;2023-01-25T14:32:34;97048.13;;;-0.47;100.00
13604;BME280;24578;48.264;11.436;2023-01-25T14:35:37;97050.81;;;-0.55;100.00
13604;BME280;24578;48.264;11.436;2023-01-25T14:38:41;97045.59;;;-0.47;100.00
13604;BME280;24578;48.264;11.436;2023-01-25T14:41:42;97042.13;;;-0.41;100.00
13604;BME280;24578;48.264;11.436;2023-01-25T14:44:46;97037.81;;;-0.36;100.00
13604;BME280;24578;48.264;11.436;2023-01-25T14:47:47;97047.31;;;-0.48;100.00
13604;BME280;24578;48.264;11.436;2023-01-25T14:50:48;97047.44;;;-0.55;100.00
13604;BME280;24578;48.264;11.436;2023-01-25T14:53:56;97050.09;;;-0.63;100.00
13604;BME280;24578;48.264;11.436;2023-01-25T14:57:03;97051.81;;;-0.65;100.00
13604;BME280;24578;48.264;11.436;2023-01-25T15:00:25;97041.44;;;-0.53;100.00
13604;BME280;24578;48.264;11.436;2023-01-25T15:03:31;97043.22;;;-0.56;100.00
13604;BME280;24578;48.264;11.436;2023-01-25T15:06:31;97033.81;;;-0.54;100.00
13604;BME280;24578;48.264;11.436;2023-01-25T15:09:39;97031.97;;;-0.44;100.00
13604;BME280;24578;48.264;11.436;2023-01-25T15:12:40;97029.66;;;-0.58;100.00
13604;BME280;24578;48.264;11.436;2023-01-25T15:18:56;97018.63;;;-0.59;100.00
13604;BME280;24578;48.264;11.436;2023-01-25T15:21:59;97004.31;;;-0.63;100.00
13604;BME280;24578;48.264;11.436;2023-01-25T15:25:00;96995.72;;;-0.56;100.00
13604;BME280;24578;48.264;11.436;2023-01-25T15:28:00;97013.53;;;-0.57;100.00
13604;BME280;24578;48.264;11.436;2023-01-25T15:31:03;97005.81;;;-0.51;100.00
13604;BME280;24578;48.264;11.436;2023-01-25T15:34:04;97014.47;;;-0.63;100.00
13604;BME280;24578;48.264;11.436;2023-01-25T15:37:05;97009.22;;;-0.52;100.00
13604;BME280;24578;48.264;11.436;2023-01-25T15:40:06;97008.47;;;-0.59;100.00
13604;BME280;24578;48.264;11.436;2023-01-25T15:43:14;97011.00;;;-0.59;100.00
13604;BME280;24578;48.264;11.436;2023-01-25T15:46:25;97010.19;;;-0.61;100.00
13604;BME280;24578;48.264;11.436;2023-01-25T15:49:29;97009.19;;;-0.51;100.00
13604;BME280;24578;48.264;11.436;2023-01-25T15:52:30;97005.81;;;-0.51;100.00
13604;BME280;24578;48.264;11.436;2023-01-25T15:55:32;97005.81;;;-0.51;100.00
13604;BME280;24578;48.264;11.436;2023-01-25T15:58:36;96996.56;;;-0.57;100.00
13604;BME280;24578;48.264;11.436;2023-01-25T16:01:37;96997.47;;;-0.59;100.00
13604;BME280;24578;48.264;11.436;2023-01-25T16:04:38;96994.88;;;-0.58;100.00
13604;BME280;24578;48.264;11.436;2023-01-25T16:07:41;96986.31;;;-0.52;100.00
13604;BME280;24578;48.264;11.436;2023-01-25T16:10:44;96975.28;;;-0.51;100.00
13604;BME280;24578;48.264;11.436;2023-01-25T16:13:44;96980.56;;;-0.64;100.00
13604;BME280;24578;48.264;11.436;2023-01-25T16:16:48;96982.25;;;-0.63;100.00
13604;BME280;24578;48.264;11.436;2023-01-25T16:19:49;96980.53;;;-0.60;100.00
13604;BME280;24578;48.264;11.436;2023-01-25T16:22:50;96971.19;;;-0.60;100.00
13604;BME280;24578;48.264;11.436;2023-01-25T16:25:50;96973.81;;;-0.65;100.00
13604;BME280;24578;48.264;11.436;2023-01-25T16:28:51;96979.00;;;-0.71;100.00
13604;BME280;24578;48.264;11.436;2023-01-25T16:31:53;96966.28;;;-0.71;100.00
13604;BME280;24578;48.264;11.436;2023-01-25T16:34:54;96966.34;;;-0.75;100.00
13604;BME280;24578;48.264;11.436;2023-01-25T16:37:55;96967.91;;;-0.67;100.00
13604;BME280;24578;48.264;11.436;2023-01-25T16:40:56;96966.16;;;-0.63;100.00
13604;BME280;24578;48.264;11.436;2023-01-25T16:43:57;96956.16;;;-0.74;100.00
13604;BME280;24578;48.264;11.436;2023-01-25T16:46:57;96949.41;;;-0.77;100.00
13604;BME280;24578;48.264;11.436;2023-01-25T16:49:58;96950.28;;;-0.79;100.00
13604;BME280;24578;48.264;11.436;2023-01-25T16:52:58;96949.47;;;-0.81;100.00
13604;BME280;24578;48.264;11.436;2023-01-25T16:55:59;96944.31;;;-0.75;100.00
13604;BME280;24578;48.264;11.436;2023-01-25T16:59:03;96945.25;;;-0.82;100.00
13604;BME280;24578;48.264;11.436;2023-01-25T17:02:04;96946.94;;;-0.81;100.00
13604;BME280;24578;48.264;11.436;2023-01-25T17:05:06;96942.63;;;-0.78;100.00